Time;durP1;ratioP1;P1;durP2;ratioP2;P2;SDS_P1;SDS_P2;PMS_P1;PMS_P2;Temp;Humidity;BMP_temperature;BMP_pressure;BME280_temperature;BME280_humidity;BME280_pressure;Samples;Min_cycle;Max_cycle;Signal;HPM_P1;HPM_P2
2022/11/25 00:01:19;;;;;;;27.35;15.18;;;;;;;;;;5055827;28;20043;-72
2022/11/25 00:03:45;;;;;;;;;;;;;;;;;;5056980;28;20091;-72
2022/11/25 00:06:32;;;;;;;40.38;16.15;;;;;;;;;;5056278;28;19909;-72
2022/11/25 00:08:59;;;;;;;35.33;12.93;;;;;;;;;;5056446;28;20048;-72
2022/11/25 00:11:26;;;;;;;25.88;12.88;;;;;;;;;;5056268;28;20060;-72
2022/11/25 00:13:52;;;;;;;28.15;10.30;;;;;;;;;;5056366;28;20049;-72
2022/11/25 00:16:19;;;;;;;21.30;7.38;;;;;;;;;;5056978;28;20126;-72
2022/11/25 00:18:46;;;;;;;21.35;8.35;;;;;;;;;;5056380;28;20488;-72
2022/11/25 00:21:17;;;;;;;26.83;8.32;;;;;;;;;;5056250;28;20029;-72
2022/11/25 00:23:43;;;;;;;;;;;;;;;;;;5056328;28;20096;-72
2022/11/25 00:26:13;;;;;;;26.48;9.15;;;;;;;;;;5055996;28;19924;-72
2022/11/25 00:28:39;;;;;;;23.20;9.95;;;;;;;;;;5056133;28;20037;-72
2022/11/25 00:31:06;;;;;;;30.17;9.57;;;;;;;;;;5055778;28;20047;-72
2022/11/25 00:33:32;;;;;;;21.80;8.52;;;;;;;;;;5055956;28;20569;-72
2022/11/25 00:36:02;;;;;;;143.43;111.43;;;;;;;;;;5056135;28;20047;-72
2022/11/25 00:38:28;;;;;;;33.65;18.17;;;;;;;;;;5055620;28;20519;-72
2022/11/25 00:46:26;;;;;;;26.05;8.25;;;;;;;;;;5055224;28;20408;-72
2022/11/25 00:48:52;;;;;;;23.15;9.90;;;;;;;;;;5055390;28;20072;-72
2022/11/25 00:51:18;;;;;;;22.95;8.65;;;;;;;;;;5056208;28;20036;-72
2022/11/25 00:53:44;;;;;;;19.55;8.05;;;;;;;;;;5055676;28;20040;-72
2022/11/25 00:56:14;;;;;;;21.23;8.35;;;;;;;;;;5055083;28;20040;-72
2022/11/25 00:58:40;;;;;;;26.42;9.52;;;;;;;;;;5055587;28;20037;-72
2022/11/25 01:01:06;;;;;;;22.58;8.77;;;;;;;;;;5055439;28;20033;-72
2022/11/25 01:03:33;;;;;;;27.85;8.20;;;;;;;;;;5055048;28;20381;-72
2022/11/25 01:06:03;;;;;;;20.00;7.93;;;;;;;;;;5055007;28;20115;-72
2022/11/25 01:08:30;;;;;;;20.70;7.00;;;;;;;;;;5055096;28;20045;-72
2022/11/25 01:11:03;;;;;;;17.45;6.60;;;;;;;;;;5055438;28;20045;-72
2022/11/25 01:13:29;;;;;;;25.83;7.13;;;;;;;;;;5054889;28;20116;-72
2022/11/25 01:15:56;;;;;;;21.50;7.10;;;;;;;;;;5055546;28;20131;-72
2022/11/25 01:18:22;;;;;;;19.98;6.15;;;;;;;;;;5055055;28;20037;-72
2022/11/25 01:20:48;;;;;;;24.90;8.07;;;;;;;;;;5055138;28;20044;-72
2022/11/25 01:23:14;;;;;;;21.20;7.50;;;;;;;;;;5055163;28;20095;-72
2022/11/25 01:25:40;;;;;;;17.65;6.63;;;;;;;;;;5055159;28;20054;-72
2022/11/25 01:28:06;;;;;;;19.17;6.35;;;;;;;;;;5055065;28;20041;-72
2022/11/25 01:30:32;;;;;;;20.52;6.55;;;;;;;;;;5055077;28;20153;-72
2022/11/25 01:32:58;;;;;;;24.83;8.27;;;;;;;;;;5054871;28;20045;-72
2022/11/25 01:35:25;;;;;;;22.67;8.20;;;;;;;;;;5055127;28;20051;-72
2022/11/25 01:37:51;;;;;;;18.75;8.15;;;;;;;;;;5054842;28;20064;-72
2022/11/25 01:40:17;;;;;;;15.82;6.20;;;;;;;;;;5054742;28;20045;-72
2022/11/25 01:42:44;;;;;;;14.77;6.03;;;;;;;;;;5055006;28;20106;-72
2022/11/25 01:45:22;;;;;;;16.77;6.35;;;;;;;;;;5055045;28;20041;-72
2022/11/25 01:47:49;;;;;;;15.30;6.00;;;;;;;;;;5054910;28;20048;-72
2022/11/25 01:50:17;;;;;;;22.75;7.05;;;;;;;;;;5055030;28;20464;-72
2022/11/25 01:52:45;;;;;;;22.02;7.55;;;;;;;;;;5054663;28;20102;-72
2022/11/25 01:55:20;;;;;;;21.00;6.03;;;;;;;;;;5054725;28;20041;-72
2022/11/25 01:57:51;;;;;;;20.48;6.53;;;;;;;;;;5054419;28;20052;-72
2022/11/25 02:00:17;;;;;;;;;;;;;;;;;;5055656;28;20053;-72
2022/11/25 02:02:43;;;;;;;17.02;5.13;;;;;;;;;;5054483;28;19921;-72
2022/11/25 02:05:11;;;;;;;18.58;6.57;;;;;;;;;;5054283;28;20037;-72
2022/11/25 02:07:39;;;;;;;20.75;6.28;;;;;;;;;;5054500;28;20029;-72
2022/11/25 02:10:07;;;;;;;17.25;6.18;;;;;;;;;;5053766;28;20041;-72
2022/11/25 02:12:35;;;;;;;21.77;6.03;;;;;;;;;;5054166;28;20036;-72
2022/11/25 02:15:01;;;;;;;15.45;5.35;;;;;;;;;;5054446;28;20043;-72
2022/11/25 02:17:27;;;;;;;18.42;5.05;;;;;;;;;;5054664;28;20041;-72
2022/11/25 02:20:05;;;;;;;24.38;6.40;;;;;;;;;;5055000;28;20489;-72
2022/11/25 02:22:40;;;;;;;14.45;5.80;;;;;;;;;;5054263;28;20120;-72
2022/11/25 02:25:15;;;;;;;21.63;5.82;;;;;;;;;;5057436;28;20102;-72
2022/11/25 02:27:43;;;;;;;26.08;9.88;;;;;;;;;;5057904;28;20120;-72
2022/11/25 02:30:09;;;;;;;30.23;13.70;;;;;;;;;;5058342;28;20044;-72
2022/11/25 02:32:35;;;;;;;28.23;13.52;;;;;;;;;;5057666;28;20037;-72
2022/11/25 02:35:01;;;;;;;19.90;8.25;;;;;;;;;;5058370;28;20036;-72
2022/11/25 02:37:28;;;;;;;17.10;6.85;;;;;;;;;;5058376;28;20077;-72
2022/11/25 02:39:54;;;;;;;17.25;6.90;;;;;;;;;;5058201;28;20045;-72
2022/11/25 02:42:21;;;;;;;21.30;7.20;;;;;;;;;;5057861;28;20052;-72
2022/11/25 02:44:48;;;;;;;25.50;5.53;;;;;;;;;;5057848;28;20118;-72
2022/11/25 02:47:15;;;;;;;15.57;5.75;;;;;;;;;;5057380;28;20029;-72
2022/11/25 02:49:41;;;;;;;19.55;6.38;;;;;;;;;;5057802;28;20071;-72
2022/11/25 02:52:07;;;;;;;19.90;6.28;;;;;;;;;;5057595;28;20033;-72
2022/11/25 02:54:33;;;;;;;21.23;6.45;;;;;;;;;;5057555;28;20140;-72
2022/11/25 02:56:59;;;;;;;17.25;5.45;;;;;;;;;;5057380;28;20033;-72
2022/11/25 02:59:25;;;;;;;21.35;6.50;;;;;;;;;;5057570;28;20123;-72
2022/11/25 03:01:52;;;;;;;17.17;5.55;;;;;;;;;;5057104;28;20037;-72
2022/11/25 03:04:18;;;;;;;19.38;6.78;;;;;;;;;;5057560;28;20051;-72
2022/11/25 03:06:44;;;;;;;14.98;5.35;;;;;;;;;;5057305;28;20079;-72
2022/11/25 03:09:10;;;;;;;11.18;5.55;;;;;;;;;;5057396;28;20072;-72
2022/11/25 03:14:21;;;;;;;17.58;5.13;;;;;;;;;;5056721;28;20502;-72
2022/11/25 03:16:47;;;;;;;13.70;4.15;;;;;;;;;;5057147;28;20077;-72
2022/11/25 03:19:13;;;;;;;17.67;4.93;;;;;;;;;;5057687;28;20128;-72
2022/11/25 03:21:39;;;;;;;13.88;5.25;;;;;;;;;;5057318;28;20040;-72
2022/11/25 03:24:06;;;;;;;20.33;5.30;;;;;;;;;;5056947;28;20049;-72
2022/11/25 03:26:32;;;;;;;16.50;5.43;;;;;;;;;;5057103;28;20507;-72
2022/11/25 03:28:58;;;;;;;20.10;5.72;;;;;;;;;;5056235;28;20424;-72
2022/11/25 03:31:24;;;;;;;14.43;5.43;;;;;;;;;;5056916;28;20041;-72
2022/11/25 03:33:50;;;;;;;15.00;5.50;;;;;;;;;;5056916;28;20044;-72
2022/11/25 03:36:16;;;;;;;16.70;5.90;;;;;;;;;;5055881;28;20041;-72
2022/11/25 03:38:43;;;;;;;16.92;5.15;;;;;;;;;;5056782;28;20045;-72
2022/11/25 03:41:09;;;;;;;19.95;5.72;;;;;;;;;;5056550;28;20036;-72
2022/11/25 03:43:35;;;;;;;16.55;5.75;;;;;;;;;;5056870;28;20094;-72
2022/11/25 03:46:01;;;;;;;16.02;5.13;;;;;;;;;;5057223;28;20068;-72
2022/11/25 03:48:27;;;;;;;23.70;8.35;;;;;;;;;;5056909;28;20128;-72
2022/11/25 03:50:53;;;;;;;19.63;6.03;;;;;;;;;;5057113;28;20150;-72
2022/11/25 03:53:19;;;;;;;16.55;6.10;;;;;;;;;;5056767;28;20071;-72
2022/11/25 03:55:47;;;;;;;19.35;5.93;;;;;;;;;;5056842;28;20064;-72
2022/11/25 03:58:13;;;;;;;20.15;4.75;;;;;;;;;;5056345;28;20041;-72
2022/11/25 04:00:39;;;;;;;12.30;5.25;;;;;;;;;;5057231;28;20037;-72
2022/11/25 04:03:05;;;;;;;17.52;5.72;;;;;;;;;;5056517;28;20048;-72
2022/11/25 04:05:31;;;;;;;17.13;6.45;;;;;;;;;;5056243;28;20143;-72
2022/11/25 04:07:57;;;;;;;15.45;5.65;;;;;;;;;;5056195;28;20041;-72
2022/11/25 04:10:24;;;;;;;16.65;6.22;;;;;;;;;;5056861;28;20044;-72
2022/11/25 04:12:51;;;;;;;16.38;5.32;;;;;;;;;;5056652;28;20044;-72
2022/11/25 04:15:17;;;;;;;17.33;6.25;;;;;;;;;;5056902;28;20055;-72
2022/11/25 04:17:44;;;;;;;12.18;5.25;;;;;;;;;;5056520;28;20047;-72
2022/11/25 04:20:10;;;;;;;14.68;5.10;;;;;;;;;;5056463;28;20044;-72
2022/11/25 04:22:36;;;;;;;11.27;5.10;;;;;;;;;;5055999;28;20041;-72
2022/11/25 04:25:03;;;;;;;16.08;5.35;;;;;;;;;;5056339;28;20103;-72
2022/11/25 04:27:29;;;;;;;11.82;5.03;;;;;;;;;;5056529;28;20480;-72
2022/11/25 04:29:55;;;;;;;17.90;4.57;;;;;;;;;;5056356;28;20045;-72
2022/11/25 04:32:22;;;;;;;10.32;4.68;;;;;;;;;;5056008;28;20504;-72
2022/11/25 04:34:48;;;;;;;15.85;4.57;;;;;;;;;;5055971;28;20531;-72
2022/11/25 04:37:14;;;;;;;15.57;4.40;;;;;;;;;;5055906;28;20045;-72
2022/11/25 04:39:40;;;;;;;18.35;4.70;;;;;;;;;;5056373;28;20098;-72
2022/11/25 04:44:51;;;;;;;14.65;4.78;;;;;;;;;;5055258;28;20043;-72
2022/11/25 04:47:18;;;;;;;12.05;4.50;;;;;;;;;;5055542;28;20037;-72
2022/11/25 04:49:44;;;;;;;14.68;4.32;;;;;;;;;;5055530;28;20080;-72
2022/11/25 04:52:10;;;;;;;14.45;4.50;;;;;;;;;;5055478;28;20062;-72
2022/11/25 04:54:36;;;;;;;10.02;3.88;;;;;;;;;;5055565;28;20049;-72
2022/11/25 04:57:02;;;;;;;19.10;6.10;;;;;;;;;;5055824;28;20083;-72
2022/11/25 04:59:40;;;;;;;11.02;5.75;;;;;;;;;;5062520;28;20117;-72
2022/11/25 05:02:12;;;;;;;13.32;5.38;;;;;;;;;;5075078;28;20056;-71
2022/11/25 05:04:38;;;;;;;18.85;5.43;;;;;;;;;;5075372;28;20056;-71
2022/11/25 05:07:04;;;;;;;17.13;5.07;;;;;;;;;;5075374;28;20044;-71
2022/11/25 05:09:30;;;;;;;15.32;5.75;;;;;;;;;;5072145;28;20078;-71
2022/11/25 05:11:56;;;;;;;15.75;6.70;;;;;;;;;;5053950;28;20040;-70
2022/11/25 05:14:24;;;;;;;18.45;7.00;;;;;;;;;;5053389;28;20103;-71
2022/11/25 05:16:50;;;;;;;18.42;6.45;;;;;;;;;;5055166;28;20170;-71
2022/11/25 05:19:16;;;;;;;19.48;9.02;;;;;;;;;;5055480;28;20492;-71
2022/11/25 05:21:42;;;;;;;13.68;6.63;;;;;;;;;;5053535;28;20037;-71
2022/11/25 05:24:09;;;;;;;19.83;6.93;;;;;;;;;;5053984;28;20122;-71
2022/11/25 05:26:35;;;;;;;19.58;6.40;;;;;;;;;;5053630;28;20057;-71
2022/11/25 05:29:01;;;;;;;21.40;6.75;;;;;;;;;;5053691;28;20534;-71
2022/11/25 05:31:27;;;;;;;15.07;6.57;;;;;;;;;;5053976;28;20102;-71
2022/11/25 05:33:53;;;;;;;19.02;6.07;;;;;;;;;;5054240;28;20575;-70
2022/11/25 05:36:19;;;;;;;15.45;6.15;;;;;;;;;;5053860;28;20064;-69
2022/11/25 05:38:45;;;;;;;13.27;5.60;;;;;;;;;;5053986;28;20036;-70
2022/11/25 05:41:12;;;;;;;12.13;5.10;;;;;;;;;;5054580;28;20503;-71
2022/11/25 05:43:38;;;;;;;11.60;5.00;;;;;;;;;;5054518;28;20051;-71
2022/11/25 05:46:05;;;;;;;16.95;5.30;;;;;;;;;;5054937;28;20051;-71
2022/11/25 05:48:31;;;;;;;15.85;4.60;;;;;;;;;;5053463;28;20037;-70
2022/11/25 05:51:00;;;;;;;18.83;5.18;;;;;;;;;;5053533;28;20056;-70
2022/11/25 05:53:26;;;;;;;8.88;4.10;;;;;;;;;;5054326;28;20036;-71
2022/11/25 05:56:00;;;;;;;18.30;5.80;;;;;;;;;;5053642;28;20051;-71
2022/11/25 05:58:27;;;;;;;14.18;5.50;;;;;;;;;;5054051;28;20488;-71
2022/11/25 06:00:53;;;;;;;12.07;6.25;;;;;;;;;;5054059;28;20049;-71
2022/11/25 06:03:23;;;;;;;12.48;5.28;;;;;;;;;;5053882;28;20071;-70
2022/11/25 06:05:49;;;;;;;13.02;5.40;;;;;;;;;;5053867;28;20064;-71
2022/11/25 06:08:15;;;;;;;14.07;4.90;;;;;;;;;;5053655;28;20512;-71
2022/11/25 06:10:41;;;;;;;13.45;5.68;;;;;;;;;;5054374;28;20048;-71
2022/11/25 06:13:08;;;;;;;12.38;5.18;;;;;;;;;;5054089;28;20040;-71
2022/11/25 06:15:34;;;;;;;9.50;4.90;;;;;;;;;;5046206;28;20059;-71
2022/11/25 06:18:01;;;;;;;14.02;4.90;;;;;;;;;;5051583;28;20048;-72
2022/11/25 06:20:27;;;;;;;13.77;5.15;;;;;;;;;;5050521;28;20057;-70
2022/11/25 06:22:53;;;;;;;13.75;5.80;;;;;;;;;;5051368;28;20049;-71
2022/11/25 06:25:19;;;;;;;12.88;5.70;;;;;;;;;;5051122;28;20504;-71
2022/11/25 06:27:45;;;;;;;18.70;5.43;;;;;;;;;;5052909;28;20063;-71
2022/11/25 06:30:12;;;;;;;12.90;4.85;;;;;;;;;;5052290;28;20059;-71
2022/11/25 06:32:39;;;;;;;13.48;6.22;;;;;;;;;;5053180;28;20519;-72
2022/11/25 06:35:05;;;;;;;13.32;6.60;;;;;;;;;;5054171;28;20045;-71
2022/11/25 06:37:32;;;;;;;14.70;6.30;;;;;;;;;;5054099;28;20063;-72
2022/11/25 06:39:58;;;;;;;19.48;8.25;;;;;;;;;;5054014;28;20065;-73
2022/11/25 06:42:24;;;;;;;21.27;9.77;;;;;;;;;;5053927;28;20099;-73
2022/11/25 06:44:50;;;;;;;24.38;7.93;;;;;;;;;;5053953;28;20052;-73
2022/11/25 06:47:16;;;;;;;27.15;9.88;;;;;;;;;;5054141;28;20476;-73
2022/11/25 06:49:42;;;;;;;19.75;9.60;;;;;;;;;;5054720;28;20040;-73
2022/11/25 06:52:08;;;;;;;24.40;11.13;;;;;;;;;;5054568;28;20118;-73
2022/11/25 06:54:39;;;;;;;24.27;10.77;;;;;;;;;;5053858;28;20090;-73
2022/11/25 06:57:06;;;;;;;24.23;10.25;;;;;;;;;;5053610;28;20065;-73
2022/11/25 06:59:32;;;;;;;31.60;13.40;;;;;;;;;;5054436;28;20111;-73
2022/11/25 07:01:58;;;;;;;27.23;13.85;;;;;;;;;;5053989;28;20054;-73
2022/11/25 07:04:24;;;;;;;28.45;13.27;;;;;;;;;;5053982;28;20045;-73
2022/11/25 07:06:50;;;;;;;29.33;13.07;;;;;;;;;;5054242;28;20488;-73
2022/11/25 07:09:18;;;;;;;25.40;12.73;;;;;;;;;;5054788;28;20041;-73
2022/11/25 07:11:45;;;;;;;23.92;12.52;;;;;;;;;;5056910;28;20040;-73
2022/11/25 07:14:12;;;;;;;11.35;6.05;;;;;;;;;;5057303;28;20045;-73
2022/11/25 07:16:39;;;;;;;17.75;6.85;;;;;;;;;;5057738;28;20025;-73
2022/11/25 07:19:05;;;;;;;28.27;11.50;;;;;;;;;;5057237;28;20051;-73
2022/11/25 07:21:32;;;;;;;18.42;6.68;;;;;;;;;;5057430;28;20040;-73
2022/11/25 07:23:59;;;;;;;19.02;8.07;;;;;;;;;;5057026;28;20102;-73
2022/11/25 07:26:26;;;;;;;16.52;7.20;;;;;;;;;;5056436;28;20139;-73
2022/11/25 07:28:53;;;;;;;21.23;8.55;;;;;;;;;;5057059;28;20048;-73
2022/11/25 07:31:33;;;;;;;28.08;9.93;;;;;;;;;;5056974;28;20048;-73
2022/11/25 07:34:00;;;;;;;40.22;16.92;;;;;;;;;;5056919;28;20179;-73
2022/11/25 07:36:27;;;;;;;34.53;15.43;;;;;;;;;;5056566;28;20124;-73
2022/11/25 07:38:53;;;;;;;36.10;16.83;;;;;;;;;;5056616;28;20071;-73
2022/11/25 07:41:20;;;;;;;35.40;16.40;;;;;;;;;;5056591;28;20044;-73
2022/11/25 07:43:47;;;;;;;32.25;16.20;;;;;;;;;;5056374;28;20045;-73
2022/11/25 07:46:15;;;;;;;38.75;18.38;;;;;;;;;;5056963;28;20044;-73
2022/11/25 07:48:41;;;;;;;37.75;18.45;;;;;;;;;;5056560;28;20036;-73
2022/11/25 07:51:19;;;;;;;41.53;20.00;;;;;;;;;;5056865;28;20091;-73
2022/11/25 07:53:46;;;;;;;30.85;19.58;;;;;;;;;;5056600;28;20075;-73
2022/11/25 07:56:13;;;;;;;30.05;17.17;;;;;;;;;;5056323;28;20040;-73
2022/11/25 07:58:39;;;;;;;32.65;16.73;;;;;;;;;;5056381;28;20061;-73
2022/11/25 08:01:06;;;;;;;27.33;16.33;;;;;;;;;;5056798;28;20041;-73
2022/11/25 08:03:33;;;;;;;26.05;15.80;;;;;;;;;;5056033;28;20072;-73
2022/11/25 08:06:00;;;;;;;21.77;11.73;;;;;;;;;;5056307;28;20045;-73
2022/11/25 08:08:27;;;;;;;23.88;11.65;;;;;;;;;;5055975;28;20044;-73
2022/11/25 08:10:53;;;;;;;21.33;9.32;;;;;;;;;;5055861;28;20045;-73
2022/11/25 08:13:19;;;;;;;26.00;13.55;;;;;;;;;;5056172;28;20519;-73
2022/11/25 08:15:45;;;;;;;27.63;15.52;;;;;;;;;;5055869;28;20068;-73
2022/11/25 08:18:11;;;;;;;36.28;24.15;;;;;;;;;;5056004;28;20037;-73
2022/11/25 08:20:37;;;;;;;29.55;16.52;;;;;;;;;;5056036;28;20044;-73
2022/11/25 08:23:03;;;;;;;19.40;9.52;;;;;;;;;;5055303;28;20100;-73
2022/11/25 08:25:30;;;;;;;24.08;10.43;;;;;;;;;;5055906;28;20613;-73
2022/11/25 08:27:58;;;;;;;24.13;11.50;;;;;;;;;;5055537;28;20039;-73
2022/11/25 08:30:25;;;;;;;21.20;9.98;;;;;;;;;;5056158;28;20049;-73
2022/11/25 08:32:51;;;;;;;16.98;8.13;;;;;;;;;;5055513;28;20515;-73
2022/11/25 08:35:19;;;;;;;15.88;8.15;;;;;;;;;;5055379;28;20590;-73
2022/11/25 08:37:46;;;;;;;15.77;7.57;;;;;;;;;;5055408;28;20041;-73
2022/11/25 08:40:12;;;;;;;14.50;7.40;;;;;;;;;;5055805;28;20045;-73
2022/11/25 08:42:38;;;;;;;14.82;7.50;;;;;;;;;;5055830;28;20033;-73
2022/11/25 08:45:05;;;;;;;14.00;7.25;;;;;;;;;;5055553;28;20056;-73
2022/11/25 08:47:31;;;;;;;15.20;7.70;;;;;;;;;;5055470;28;20128;-73
2022/11/25 08:49:58;;;;;;;12.65;5.72;;;;;;;;;;5054328;28;20450;-73
2022/11/25 08:52:24;;;;;;;19.67;10.90;;;;;;;;;;5055394;28;20041;-73
2022/11/25 08:54:50;;;;;;;13.25;7.97;;;;;;;;;;5055515;28;20045;-73
2022/11/25 08:57:16;;;;;;;19.67;12.35;;;;;;;;;;5055484;28;20037;-74
2022/11/25 08:59:42;;;;;;;22.02;11.32;;;;;;;;;;5055917;28;20045;-73
2022/11/25 09:02:11;;;;;;;17.05;8.93;;;;;;;;;;5055245;28;20043;-74
2022/11/25 09:04:37;;;;;;;16.02;8.00;;;;;;;;;;5055263;28;20055;-74
2022/11/25 09:07:04;;;;;;;16.73;7.97;;;;;;;;;;5055167;28;20052;-74
2022/11/25 09:09:30;;;;;;;16.45;10.80;;;;;;;;;;5055729;28;20060;-73
2022/11/25 09:11:56;;;;;;;22.67;12.60;;;;;;;;;;5054926;28;20052;-74
2022/11/25 09:14:23;;;;;;;15.70;8.23;;;;;;;;;;5054759;28;20076;-73
2022/11/25 09:16:49;;;;;;;23.95;11.02;;;;;;;;;;5055201;28;20492;-73
2022/11/25 09:19:15;;;;;;;10.05;6.28;;;;;;;;;;5055272;28;20048;-74
2022/11/25 09:21:43;;;;;;;13.00;6.65;;;;;;;;;;5054612;28;20040;-74
2022/11/25 09:24:09;;;;;;;11.73;5.13;;;;;;;;;;5055082;28;20052;-73
2022/11/25 09:26:38;;;;;;;8.90;3.40;;;;;;;;;;5054097;28;20415;-73
2022/11/25 09:29:04;;;;;;;8.88;2.90;;;;;;;;;;5054809;28;20083;-73
2022/11/25 09:31:30;;;;;;;3.80;1.92;;;;;;;;;;5054851;28;20500;-73
2022/11/25 09:33:56;;;;;;;6.22;2.05;;;;;;;;;;5053535;28;20072;-74
2022/11/25 09:36:23;;;;;;;8.68;1.95;;;;;;;;;;5054711;28;20041;-74
2022/11/25 09:38:50;;;;;;;2.55;1.35;;;;;;;;;;5054798;28;20033;-74
2022/11/25 09:47:08;;;;;;;2.75;1.00;;;;;;;;;;5054021;28;20146;-73
2022/11/25 09:49:43;;;;;;;1.92;1.10;;;;;;;;;;5054877;28;20075;-73
2022/11/25 09:52:12;;;;;;;2.28;1.20;;;;;;;;;;5054443;28;20045;-73
2022/11/25 09:54:50;;;;;;;2.20;1.08;;;;;;;;;;5054355;28;20044;-74
2022/11/25 09:57:23;;;;;;;3.72;1.77;;;;;;;;;;5054399;28;20045;-73
2022/11/25 10:00:09;;;;;;;4.47;1.60;;;;;;;;;;5054603;28;20040;-73
2022/11/25 10:02:45;;;;;;;2.15;1.20;;;;;;;;;;5054308;28;20032;-74
2022/11/25 10:05:17;;;;;;;1.13;0.80;;;;;;;;;;5054587;28;20559;-73
2022/11/25 10:07:44;;;;;;;2.38;1.20;;;;;;;;;;5054292;28;20135;-74
2022/11/25 10:10:18;;;;;;;2.88;1.30;;;;;;;;;;5054159;28;20041;-73
2022/11/25 10:12:44;;;;;;;1.25;0.73;;;;;;;;;;5053933;28;20041;-74
2022/11/25 10:15:17;;;;;;;2.15;1.20;;;;;;;;;;5054530;28;20041;-73
2022/11/25 10:17:43;;;;;;;2.58;1.45;;;;;;;;;;5054658;28;20045;-74
2022/11/25 10:20:16;;;;;;;2.88;1.20;;;;;;;;;;5054531;28;20045;-74
2022/11/25 10:22:47;;;;;;;2.70;1.40;;;;;;;;;;5054674;28;20041;-74
2022/11/25 10:25:20;;;;;;;3.97;1.75;;;;;;;;;;5053679;28;20611;-74
2022/11/25 10:27:49;;;;;;;3.35;1.73;;;;;;;;;;5053989;28;20079;-74
2022/11/25 10:30:22;;;;;;;4.57;2.13;;;;;;;;;;5054167;28;20071;-74
2022/11/25 10:33:03;;;;;;;7.43;2.80;;;;;;;;;;5054054;28;20049;-74
2022/11/25 10:35:52;;;;;;;4.43;2.60;;;;;;;;;;5054653;28;20033;-74
2022/11/25 10:38:21;;;;;;;4.32;2.55;;;;;;;;;;5050751;28;20157;-74
2022/11/25 10:40:49;;;;;;;3.72;2.85;;;;;;;;;;5054201;28;20047;-74
2022/11/25 10:43:15;;;;;;;4.15;1.67;;;;;;;;;;5054122;28;20059;-74
2022/11/25 10:45:59;;;;;;;3.28;1.55;;;;;;;;;;5056156;28;20037;-74
2022/11/25 10:48:40;;;;;;;2.15;1.55;;;;;;;;;;5057654;28;20033;-74
2022/11/25 10:51:07;;;;;;;2.30;1.58;;;;;;;;;;5057595;28;20045;-73
2022/11/25 10:53:33;;;;;;;2.90;1.40;;;;;;;;;;5057450;28;20068;-73
2022/11/25 10:56:09;;;;;;;1.73;1.20;;;;;;;;;;5057170;28;20033;-74
2022/11/25 10:58:41;;;;;;;2.05;1.00;;;;;;;;;;5057467;28;20507;-74
2022/11/25 11:01:13;;;;;;;1.40;0.80;;;;;;;;;;5057035;28;20037;-74
2022/11/25 11:03:40;;;;;;;2.13;1.20;;;;;;;;;;5057306;28;20423;-74
2022/11/25 11:06:06;;;;;;;1.58;0.80;;;;;;;;;;5057184;28;20079;-74
2022/11/25 11:08:39;;;;;;;0.52;0.50;;;;;;;;;;5057136;28;20044;-74
2022/11/25 11:11:16;;;;;;;0.90;0.70;;;;;;;;;;5057781;28;20041;-74
2022/11/25 11:13:43;;;;;;;1.08;0.90;;;;;;;;;;5057250;28;20037;-74
2022/11/25 11:16:35;;;;;;;1.73;1.45;;;;;;;;;;5057541;28;20125;-73
2022/11/25 11:19:02;;;;;;;1.67;0.80;;;;;;;;;;5055812;28;20052;-74
2022/11/25 11:21:33;;;;;;;1.52;0.75;;;;;;;;;;5057452;28;20127;-74
2022/11/25 11:23:59;;;;;;;;;;;;;;;;;;5057192;28;20496;-73
2022/11/25 11:26:32;;;;;;;3.17;1.73;;;;;;;;;;5056899;28;20004;-74
2022/11/25 11:28:58;;;;;;;1.10;0.70;;;;;;;;;;5057085;28;20033;-74
2022/11/25 11:31:27;;;;;;;3.67;2.45;;;;;;;;;;5056898;28;20403;-73
2022/11/25 11:34:04;;;;;;;1.35;0.57;;;;;;;;;;5056599;28;20049;-74
2022/11/25 11:36:37;;;;;;;1.58;0.80;;;;;;;;;;5056793;28;20052;-74
2022/11/25 11:39:18;;;;;;;0.30;0.30;;;;;;;;;;5056890;28;20041;-73
2022/11/25 11:41:55;;;;;;;1.70;0.80;;;;;;;;;;5056333;28;20565;-74
2022/11/25 11:44:24;;;;;;;0.38;0.38;;;;;;;;;;5057273;28;20122;-74
2022/11/25 11:47:09;;;;;;;0.90;0.60;;;;;;;;;;5057236;28;20076;-74
2022/11/25 11:49:53;;;;;;;1.75;1.30;;;;;;;;;;5056315;28;20041;-73
2022/11/25 11:52:31;;;;;;;12.02;10.98;;;;;;;;;;5056285;28;20512;-73
2022/11/25 11:55:00;;;;;;;0.45;0.38;;;;;;;;;;5056145;28;20500;-74
2022/11/25 11:57:29;;;;;;;2.47;0.93;;;;;;;;;;5055180;28;20041;-74
2022/11/25 11:59:58;;;;;;;0.65;0.50;;;;;;;;;;5056747;28;20114;-74
2022/11/25 12:02:43;;;;;;;0.40;0.40;;;;;;;;;;5055962;28;20041;-74
2022/11/25 12:05:09;;;;;;;0.55;0.45;;;;;;;;;;5056048;28;20073;-74
2022/11/25 12:07:35;;;;;;;0.30;0.30;;;;;;;;;;5056461;28;20099;-74
2022/11/25 12:10:05;;;;;;;2.72;0.50;;;;;;;;;;5056384;28;20052;-73
2022/11/25 12:12:50;;;;;;;0.25;0.25;;;;;;;;;;5056114;28;20037;-74
2022/11/25 12:15:22;;;;;;;1.35;0.50;;;;;;;;;;5055823;28;20065;-73
2022/11/25 12:17:52;;;;;;;0.88;0.85;;;;;;;;;;5056157;28;20045;-74
2022/11/25 12:20:28;;;;;;;1.10;1.00;;;;;;;;;;5056383;28;20079;-73
2022/11/25 12:23:10;;;;;;;1.15;0.90;;;;;;;;;;5055953;28;20048;-74
2022/11/25 12:25:38;;;;;;;2.47;0.90;;;;;;;;;;5055687;28;20064;-74
2022/11/25 12:28:10;;;;;;;1.98;1.02;;;;;;;;;;5055853;28;20041;-74
2022/11/25 12:30:40;;;;;;;3.55;1.27;;;;;;;;;;5056187;28;20049;-74
2022/11/25 12:33:16;;;;;;;3.50;2.30;;;;;;;;;;5056059;28;20047;-74
2022/11/25 12:35:58;;;;;;;2.85;1.48;;;;;;;;;;5055807;28;20044;-74
2022/11/25 12:38:27;;;;;;;3.83;2.50;;;;;;;;;;5055928;28;20055;-74
2022/11/25 12:41:00;;;;;;;1.70;1.02;;;;;;;;;;5055322;28;20055;-74
2022/11/25 12:43:45;;;;;;;1.92;1.27;;;;;;;;;;5055219;28;20052;-74
2022/11/25 12:46:11;;;;;;;4.18;1.55;;;;;;;;;;5055840;28;20087;-74
2022/11/25 12:48:39;;;;;;;0.82;0.80;;;;;;;;;;5055639;28;20032;-74
2022/11/25 12:51:12;;;;;;;1.20;0.90;;;;;;;;;;5055842;28;20123;-74
2022/11/25 12:53:44;;;;;;;1.58;1.48;;;;;;;;;;5054890;28;20404;-74
2022/11/25 12:56:16;;;;;;;1.00;0.90;;;;;;;;;;5055280;28;20048;-74
2022/11/25 12:58:48;;;;;;;5.03;2.20;;;;;;;;;;5055159;28;20480;-73
2022/11/25 13:01:14;;;;;;;2.28;1.73;;;;;;;;;;5055004;28;20044;-74
2022/11/25 13:03:55;;;;;;;3.20;0.95;;;;;;;;;;5054988;28;20526;-74
2022/11/25 13:06:37;;;;;;;2.25;1.42;;;;;;;;;;5055275;28;20048;-74
2022/11/25 13:09:03;;;;;;;1.42;1.20;;;;;;;;;;5054960;28;20043;-74
2022/11/25 13:11:38;;;;;;;1.80;0.82;;;;;;;;;;5054884;28;20051;-74
2022/11/25 13:14:13;;;;;;;1.92;1.17;;;;;;;;;;5054778;28;20130;-74
2022/11/25 13:16:41;;;;;;;2.53;1.85;;;;;;;;;;5055003;28;20036;-73
2022/11/25 13:19:11;;;;;;;2.45;1.10;;;;;;;;;;5055034;28;20044;-74
2022/11/25 13:21:54;;;;;;;3.00;2.50;;;;;;;;;;5055016;28;20036;-74
2022/11/25 13:24:29;;;;;;;1.55;1.20;;;;;;;;;;5054837;28;20088;-73
2022/11/25 13:26:55;;;;;;;8.45;6.57;;;;;;;;;;5054765;28;20045;-73
2022/11/25 13:29:24;;;;;;;1.02;0.90;;;;;;;;;;5055408;28;20045;-73
2022/11/25 13:32:01;;;;;;;0.98;0.40;;;;;;;;;;5054945;28;20040;-73
2022/11/25 13:34:33;;;;;;;0.90;0.70;;;;;;;;;;5054437;28;20508;-73
2022/11/25 13:37:01;;;;;;;0.98;0.80;;;;;;;;;;5054415;28;20052;-73
2022/11/25 13:39:34;;;;;;;1.40;0.75;;;;;;;;;;5055263;28;20120;-73
2022/11/25 13:42:13;;;;;;;1.67;0.93;;;;;;;;;;5054179;28;20044;-74
2022/11/25 13:44:58;;;;;;;2.70;0.70;;;;;;;;;;5054542;28;20052;-73
2022/11/25 13:47:24;;;;;;;0.60;0.60;;;;;;;;;;5054461;28;20101;-74
2022/11/25 13:49:52;;;;;;;1.80;0.60;;;;;;;;;;5054547;28;20045;-73
2022/11/25 13:52:18;;;;;;;0.82;0.43;;;;;;;;;;5054305;28;20078;-74
2022/11/25 13:54:54;;;;;;;0.85;0.63;;;;;;;;;;5054994;28;20049;-74
2022/11/25 13:57:25;;;;;;;1.17;0.60;;;;;;;;;;5054477;28;20234;-74
2022/11/25 13:59:59;;;;;;;1.17;0.60;;;;;;;;;;5054137;28;20056;-73
2022/11/25 14:02:28;;;;;;;1.55;0.93;;;;;;;;;;5054194;28;20404;-73
2022/11/25 14:05:06;;;;;;;2.60;0.60;;;;;;;;;;5054272;28;20052;-74
2022/11/25 14:07:51;;;;;;;1.13;0.50;;;;;;;;;;5054358;28;20033;-74
2022/11/25 14:10:35;;;;;;;0.82;0.70;;;;;;;;;;5054645;28;20037;-74
2022/11/25 14:13:16;;;;;;;1.70;0.60;;;;;;;;;;5054239;28;20033;-73
2022/11/25 14:15:48;;;;;;;1.42;0.60;;;;;;;;;;5054350;28;20037;-74
2022/11/25 14:18:14;;;;;;;2.25;0.65;;;;;;;;;;5054218;28;20044;-74
2022/11/25 14:20:59;;;;;;;0.60;0.50;;;;;;;;;;5057388;28;20045;-74
2022/11/25 14:23:43;;;;;;;1.05;0.40;;;;;;;;;;5058207;28;20051;-74
2022/11/25 14:26:11;;;;;;;1.05;0.43;;;;;;;;;;5058220;28;20049;-73
2022/11/25 14:28:47;;;;;;;1.67;0.43;;;;;;;;;;5058271;28;20041;-74
2022/11/25 14:31:15;;;;;;;0.80;0.60;;;;;;;;;;5058597;28;20041;-74
2022/11/25 14:33:51;;;;;;;0.85;0.40;;;;;;;;;;5058121;28;20166;-74
2022/11/25 14:36:30;;;;;;;0.70;0.38;;;;;;;;;;5057765;28;20045;-74
2022/11/25 14:38:59;;;;;;;0.80;0.28;;;;;;;;;;5057810;28;20560;-74
2022/11/25 14:41:32;;;;;;;0.47;0.30;;;;;;;;;;5058093;28;20041;-74
2022/11/25 14:44:01;;;;;;;0.30;0.30;;;;;;;;;;5057626;28;20041;-74
2022/11/25 14:46:27;;;;;;;0.20;0.20;;;;;;;;;;5057564;28;20433;-74
2022/11/25 14:48:54;;;;;;;0.60;0.60;;;;;;;;;;5057930;28;20040;-74
2022/11/25 14:51:21;;;;;;;0.60;0.60;;;;;;;;;;5057758;28;20047;-74
2022/11/25 14:53:48;;;;;;;3.60;1.13;;;;;;;;;;5057441;28;20446;-74
2022/11/25 14:56:15;;;;;;;0.52;0.50;;;;;;;;;;5057511;28;20076;-74
2022/11/25 14:58:45;;;;;;;2.08;0.40;;;;;;;;;;5057708;28;20124;-74
2022/11/25 15:01:28;;;;;;;3.38;0.60;;;;;;;;;;5057906;28;20120;-74